createdAt,value
2023-03-10T00:00:23.419Z,94443.78
2023-03-10T00:02:50.533Z,94448.38
2023-03-10T00:05:19.147Z,94442.63
2023-03-10T00:07:47.656Z,94447.25
2023-03-10T00:10:16.759Z,94446.06
2023-03-10T00:12:44.320Z,94454.50
2023-03-10T00:15:12.600Z,94453.75
2023-03-10T00:17:40.331Z,94437.63
2023-03-10T00:20:08.504Z,94446.81
2023-03-10T00:22:35.694Z,94439.91
2023-03-10T00:25:02.836Z,94441.81
2023-03-10T00:27:29.965Z,94434.91
2023-03-10T00:29:57.329Z,94444.13
2023-03-10T00:32:24.510Z,94431.81
2023-03-10T00:34:51.637Z,94431.06
2023-03-10T00:37:18.757Z,94423.78
2023-03-10T00:39:50.048Z,94419.56
2023-03-10T00:42:17.878Z,94418.81
2023-03-10T00:44:45.021Z,94408.44
2023-03-10T00:47:12.249Z,94415.72
2023-03-10T00:49:39.370Z,94406.88
2023-03-10T00:52:06.566Z,94401.13
2023-03-10T00:54:33.659Z,94404.56
2023-03-10T00:57:00.789Z,94391.94
2023-03-10T00:59:29.561Z,94383.09
2023-03-10T01:01:59.971Z,94390.78
2023-03-10T01:04:27.336Z,94386.97
2023-03-10T01:06:57.312Z,94380.81
2023-03-10T01:09:24.518Z,94380.81
2023-03-10T01:11:51.621Z,94370.09
2023-03-10T01:14:18.786Z,94369.28
2023-03-10T01:16:45.912Z,94370.47
2023-03-10T01:19:13.057Z,94358.16
2023-03-10T01:21:40.248Z,94350.88
2023-03-10T01:24:08.124Z,94345.91
2023-03-10T01:26:35.227Z,94340.94
2023-03-10T01:29:02.345Z,94348.59
2023-03-10T01:31:29.523Z,94328.63
2023-03-10T01:33:56.651Z,94332.50
2023-03-10T01:36:26.463Z,94327.50
2023-03-10T01:38:55.370Z,94322.13
2023-03-10T01:41:23.183Z,94310.63
2023-03-10T01:43:52.577Z,94309.84
2023-03-10T01:46:31.544Z,94306.38
2023-03-10T01:49:04.153Z,94303.72
2023-03-10T01:51:35.131Z,94309.06
2023-03-10T01:54:06.658Z,94284.16
2023-03-10T01:56:35.067Z,94299.09
2023-03-10T01:59:02.539Z,94283.41
2023-03-10T02:01:31.191Z,94275.72
2023-03-10T02:04:07.928Z,94274.16
2023-03-10T02:06:37.010Z,94280.31
2023-03-10T02:09:05.085Z,94268.03
2023-03-10T02:11:32.401Z,94269.59
2023-03-10T02:14:02.862Z,94268.03
2023-03-10T02:16:30.532Z,94264.22
2023-03-10T02:18:57.895Z,94262.66
2023-03-10T02:21:48.874Z,94252.72
2023-03-10T02:24:29.705Z,94257.28
2023-03-10T02:27:03.078Z,94257.28
2023-03-10T02:29:57.940Z,94243.09
2023-03-10T02:32:26.957Z,94236.59
2023-03-10T02:34:54.215Z,94236.59
2023-03-10T02:37:28.470Z,94227.38
2023-03-10T02:39:55.671Z,94220.50
2023-03-10T02:42:25.173Z,94200.53
2023-03-10T02:44:53.986Z,94200.53
2023-03-10T02:47:21.097Z,94209.38
2023-03-10T02:49:48.547Z,94207.84
2023-03-10T02:52:29.964Z,94199.41
2023-03-10T02:54:57.100Z,94182.91
2023-03-10T02:57:24.231Z,94169.50
2023-03-10T02:59:51.353Z,94172.19
2023-03-10T03:02:18.475Z,94169.50
2023-03-10T03:04:45.541Z,94161.44
2023-03-10T03:07:12.657Z,94166.06
2023-03-10T03:09:39.797Z,94186.75
2023-03-10T03:12:07.265Z,94202.84
2023-03-10T03:14:34.361Z,94210.88
2023-03-10T03:17:01.601Z,94197.84
2023-03-10T03:19:29.980Z,94202.09
2023-03-10T03:21:57.212Z,94181.00
2023-03-10T03:24:24.306Z,94171.00
2023-03-10T03:26:51.414Z,94170.25
2023-03-10T03:29:18.566Z,94169.50
2023-03-10T03:31:48.713Z,94174.09
2023-03-10T03:34:16.148Z,94167.56
2023-03-10T03:36:43.217Z,94161.81
2023-03-10T03:39:10.370Z,94169.09
2023-03-10T03:41:37.524Z,94171.03
2023-03-10T03:44:04.715Z,94171.78
2023-03-10T03:46:31.931Z,94174.47
2023-03-10T03:48:59.486Z,94187.91
2023-03-10T03:51:26.925Z,94189.81
2023-03-10T03:53:54.060Z,94191.72
2023-03-10T03:56:21.179Z,94195.19
2023-03-10T03:58:48.291Z,94187.50
2023-03-10T04:01:16.499Z,94172.16
2023-03-10T04:03:43.612Z,94177.53
2023-03-10T04:06:10.724Z,94174.84
2023-03-10T04:08:37.863Z,94176.78
2023-03-10T04:11:05.158Z,94178.28
2023-03-10T04:13:32.294Z,94175.22
2023-03-10T04:15:59.919Z,94176.41
2023-03-10T04:18:27.431Z,94185.97
2023-03-10T04:20:54.577Z,94192.50
2023-03-10T04:23:21.683Z,94195.94
2023-03-10T04:25:48.835Z,94195.19
2023-03-10T04:28:16.107Z,94199.78
2023-03-10T04:30:44.987Z,94212.41
2023-03-10T04:33:12.202Z,94209.72
2023-03-10T04:35:43.820Z,94215.50
2023-03-10T04:38:10.973Z,94222.41
2023-03-10T04:40:38.089Z,94217.78
2023-03-10T04:43:05.232Z,94219.72
2023-03-10T04:45:32.469Z,94222.41
2023-03-10T04:48:00.443Z,94225.06
2023-03-10T04:50:27.683Z,94219.31
2023-03-10T04:52:54.798Z,94208.22
2023-03-10T04:55:21.867Z,94207.47
2023-03-10T04:57:49.059Z,94198.63
2023-03-10T05:00:16.417Z,94205.91
2023-03-10T05:02:43.548Z,94195.94
2023-03-10T05:05:11.016Z,94206.66
2023-03-10T05:07:38.389Z,94203.59
2023-03-10T05:10:05.975Z,94205.16
2023-03-10T05:12:33.326Z,94201.31
2023-03-10T05:15:00.564Z,94194.00
2023-03-10T05:17:27.848Z,94205.91
2023-03-10T05:19:55.507Z,94211.66
2023-03-10T05:22:22.594Z,94208.19
2023-03-10T05:24:49.725Z,94208.19
2023-03-10T05:27:16.840Z,94205.53
2023-03-10T05:29:44.244Z,94207.84
2023-03-10T05:32:11.396Z,94195.56
2023-03-10T05:34:38.533Z,94200.53
2023-03-10T05:37:05.655Z,94202.84
2023-03-10T05:39:32.804Z,94206.28
2023-03-10T05:41:59.950Z,94205.16
2023-03-10T05:44:27.442Z,94210.13
2023-03-10T05:46:54.562Z,94202.84
2023-03-10T05:49:21.738Z,94205.13
2023-03-10T05:51:48.842Z,94187.13
2023-03-10T05:54:15.933Z,94185.22
2023-03-10T05:56:43.021Z,94196.69
2023-03-10T05:59:10.197Z,94181.34
2023-03-10T06:01:37.443Z,94190.19
2023-03-10T06:04:04.873Z,94191.34
2023-03-10T06:06:32.200Z,94177.53
2023-03-10T06:08:59.359Z,94175.59
2023-03-10T06:11:26.887Z,94174.47
2023-03-10T06:13:54.004Z,94182.16
2023-03-10T06:16:21.226Z,94180.97
2023-03-10T06:18:52.268Z,94175.22
2023-03-10T06:21:19.419Z,94177.53
2023-03-10T06:23:46.520Z,94180.22
2023-03-10T06:26:15.726Z,94170.25
2023-03-10T06:28:45.872Z,94161.44
2023-03-10T06:31:19.283Z,94165.63
2023-03-10T06:33:46.838Z,94161.81
2023-03-10T06:36:15.280Z,94164.50
2023-03-10T06:38:42.688Z,94159.13
2023-03-10T06:41:10.312Z,94151.06
2023-03-10T06:43:38.131Z,94154.13
2023-03-10T06:46:07.822Z,94154.13
2023-03-10T06:48:36.988Z,94151.44
2023-03-10T06:51:14.183Z,94141.88
2023-03-10T06:53:41.361Z,94148.78
2023-03-10T06:56:14.908Z,94141.91
2023-03-10T06:58:42.772Z,94131.91
2023-03-10T07:01:25.433Z,94130.38
2023-03-10T07:03:53.131Z,94141.13
2023-03-10T07:06:20.759Z,94139.22
2023-03-10T07:08:47.959Z,94131.91
2023-03-10T07:11:15.512Z,94138.44
2023-03-10T07:13:42.611Z,94140.34
2023-03-10T07:16:09.710Z,94142.66
2023-03-10T07:18:36.873Z,94144.19
2023-03-10T07:21:11.773Z,94135.38
2023-03-10T07:23:39.571Z,94141.88
2023-03-10T07:26:07.093Z,94138.41
2023-03-10T07:28:35.543Z,94140.34
2023-03-10T07:31:08.030Z,94142.66
2023-03-10T07:33:35.273Z,94138.06
2023-03-10T07:36:11.553Z,94140.72
2023-03-10T07:38:38.855Z,94140.31
2023-03-10T07:41:10.600Z,94133.81
2023-03-10T07:43:37.980Z,94137.66
2023-03-10T07:46:10.408Z,94131.13
2023-03-10T07:48:37.884Z,94126.16
2023-03-10T07:51:05.455Z,94124.22
2023-03-10T07:53:32.805Z,94120.41
2023-03-10T07:56:00.124Z,94119.22
2023-03-10T07:58:27.207Z,94120.78
2023-03-10T08:00:58.451Z,94124.22
2023-03-10T08:03:27.405Z,94120.75
2023-03-10T08:05:55.509Z,94117.69
2023-03-10T08:08:22.800Z,94117.69
2023-03-10T08:10:49.939Z,94111.19
2023-03-10T08:13:17.414Z,94103.13
2023-03-10T08:15:44.738Z,94102.34
2023-03-10T08:18:11.979Z,94098.50
2023-03-10T08:20:39.152Z,94107.69
2023-03-10T08:23:06.295Z,94106.94
2023-03-10T08:25:33.385Z,94098.88
2023-03-10T08:28:00.489Z,94097.00
2023-03-10T08:30:27.593Z,94095.09
2023-03-10T08:32:54.704Z,94090.13
2023-03-10T08:35:21.816Z,94093.97
2023-03-10T08:37:48.921Z,94088.59
2023-03-10T08:40:16.139Z,94094.75
2023-03-10T08:42:43.339Z,94087.06
2023-03-10T08:45:12.085Z,94090.13
2023-03-10T08:47:44.637Z,94087.06
2023-03-10T08:50:12.741Z,94091.28
2023-03-10T08:52:41.318Z,94089.72
2023-03-10T08:55:08.681Z,94095.47
2023-03-10T08:57:35.795Z,94100.47
2023-03-10T09:00:05.030Z,94092.41
2023-03-10T09:02:32.196Z,94093.94
2023-03-10T09:04:59.490Z,94093.56
2023-03-10T09:07:26.778Z,94094.31
2023-03-10T09:09:53.954Z,94095.06
2023-03-10T09:12:21.036Z,94093.56
2023-03-10T09:14:48.191Z,94097.00
2023-03-10T09:17:15.306Z,94088.94
2023-03-10T09:19:42.425Z,94095.81
2023-03-10T09:22:09.517Z,94092.75
2023-03-10T09:24:36.598Z,94097.75
2023-03-10T09:27:03.761Z,94090.84
2023-03-10T09:29:42.699Z,94088.16
2023-03-10T09:32:10.832Z,94082.41
2023-03-10T09:34:38.038Z,94083.94
2023-03-10T09:37:06.908Z,94074.75
2023-03-10T09:39:35.256Z,94070.91
2023-03-10T09:42:41.061Z,94065.16
2023-03-10T09:45:17.850Z,94075.88
2023-03-10T09:47:57.950Z,94062.84
2023-03-10T09:50:39.154Z,94067.06
2023-03-10T09:53:27.721Z,94063.63
2023-03-10T09:55:55.002Z,94055.94
2023-03-10T09:58:37.066Z,94056.72
2023-03-10T10:01:06.739Z,94062.44
2023-03-10T10:03:52.161Z,94057.09
2023-03-10T10:06:30.095Z,94057.47
2023-03-10T10:09:05.088Z,94054.78
2023-03-10T10:11:35.044Z,94056.28
2023-03-10T10:14:31.051Z,94045.53
2023-03-10T10:17:13.866Z,94045.91
2023-03-10T10:19:41.050Z,94050.13
2023-03-10T10:22:13.893Z,94045.88
2023-03-10T10:24:58.640Z,94035.53
2023-03-10T10:27:26.096Z,94040.13
2023-03-10T10:29:53.312Z,94042.81
2023-03-10T10:32:20.503Z,94034.00
2023-03-10T10:34:47.694Z,94024.03
2023-03-10T10:37:37.253Z,94014.03
2023-03-10T10:40:23.460Z,94034.78
2023-03-10T10:42:55.636Z,94030.94
2023-03-10T10:45:37.456Z,94031.31
2023-03-10T10:48:05.410Z,94040.16
2023-03-10T10:50:36.180Z,94022.91
2023-03-10T10:53:24.389Z,94033.66
2023-03-10T10:56:06.484Z,94040.16
2023-03-10T10:58:36.741Z,94023.66
2023-03-10T11:01:13.079Z,94023.28
2023-03-10T11:03:43.024Z,94018.28
2023-03-10T11:06:14.926Z,94016.72
2023-03-10T11:08:42.048Z,93999.47
2023-03-10T11:11:18.967Z,93985.25
2023-03-10T11:14:13.390Z,93969.22
2023-03-10T11:17:06.531Z,93975.78
2023-03-10T11:19:52.607Z,93986.13
2023-03-10T11:22:41.200Z,93963.50
2023-03-10T11:25:26.901Z,93993.81
2023-03-10T11:27:58.086Z,93966.53
2023-03-10T11:30:30.189Z,93963.09
2023-03-10T11:33:09.353Z,93972.69
2023-03-10T11:35:41.084Z,93960.38
2023-03-10T11:38:32.337Z,93964.59
2023-03-10T11:41:06.650Z,93968.81
2023-03-10T11:43:55.222Z,93963.44
2023-03-10T11:46:32.374Z,93963.81
2023-03-10T11:49:07.041Z,93958.06
2023-03-10T11:51:34.092Z,93960.72
2023-03-10T11:54:12.290Z,93951.91
2023-03-10T11:56:39.804Z,93959.19
2023-03-10T11:59:16.029Z,93960.31
2023-03-10T12:02:05.270Z,93948.81
2023-03-10T12:04:35.199Z,93960.69
2023-03-10T12:07:21.679Z,93961.44
2023-03-10T12:09:57.445Z,93967.97
2023-03-10T12:12:32.328Z,93972.16
2023-03-10T12:15:03.000Z,93966.41
2023-03-10T12:17:30.216Z,93960.66
2023-03-10T12:20:12.436Z,93958.34
2023-03-10T12:22:42.077Z,93940.66
2023-03-10T12:25:28.076Z,93952.59
2023-03-10T12:28:17.133Z,93941.06
2023-03-10T12:30:58.510Z,93945.28
2023-03-10T12:33:31.511Z,93949.09
2023-03-10T12:36:29.727Z,93944.50
2023-03-10T12:39:24.896Z,93953.34
2023-03-10T12:42:02.474Z,93966.75
2023-03-10T12:44:44.052Z,93960.19
2023-03-10T12:47:25.548Z,93950.63
2023-03-10T12:49:55.210Z,93957.13
2023-03-10T12:52:40.619Z,93953.25
2023-03-10T12:55:18.917Z,93937.56
2023-03-10T12:58:15.262Z,93951.38
2023-03-10T13:00:45.139Z,93954.06
2023-03-10T13:03:30.528Z,93946.75
2023-03-10T13:06:02.873Z,93949.44
2023-03-10T13:09:02.072Z,93945.56
2023-03-10T13:11:36.000Z,93951.31
2023-03-10T13:14:10.209Z,93947.13
2023-03-10T13:16:37.411Z,93954.41
2023-03-10T13:19:05.077Z,93934.81
2023-03-10T13:21:38.303Z,93944.44
2023-03-10T13:24:20.429Z,93938.69
2023-03-10T13:26:47.561Z,93941.75
2023-03-10T13:29:19.773Z,93931.00
2023-03-10T13:31:53.439Z,93940.19
2023-03-10T13:34:22.380Z,93927.13
2023-03-10T13:36:49.735Z,93927.13
2023-03-10T13:39:21.831Z,93937.47
2023-03-10T13:41:52.846Z,93938.63
2023-03-10T13:44:23.047Z,93939.41
2023-03-10T13:46:53.689Z,93942.84
2023-03-10T13:49:24.586Z,93932.09
2023-03-10T13:51:58.324Z,93937.47
2023-03-10T13:54:39.035Z,93944.00
2023-03-10T13:57:32.531Z,93932.84
2023-03-10T14:00:00.719Z,93931.34
2023-03-10T14:02:35.409Z,93926.72
2023-03-10T14:05:02.729Z,93931.72
2023-03-10T14:07:32.152Z,93926.34
2023-03-10T14:10:04.984Z,93924.41
2023-03-10T14:12:41.616Z,93927.09
2023-03-10T14:15:14.682Z,93929.38
2023-03-10T14:17:43.446Z,93920.94
2023-03-10T14:20:12.521Z,93930.91
2023-03-10T14:22:41.142Z,93916.72
2023-03-10T14:25:12.718Z,93930.91
2023-03-10T14:27:42.739Z,93933.22
2023-03-10T14:30:30.865Z,93938.22
2023-03-10T14:33:00.437Z,93926.31
2023-03-10T14:35:29.221Z,93932.84
2023-03-10T14:37:56.537Z,93937.06
2023-03-10T14:40:25.545Z,93925.53
2023-03-10T14:42:54.627Z,93926.69
2023-03-10T14:45:33.564Z,93923.66
2023-03-10T14:48:04.205Z,93918.28
2023-03-10T14:50:31.680Z,93923.25
2023-03-10T14:52:58.784Z,93913.66
2023-03-10T14:55:25.933Z,93912.91
2023-03-10T14:57:59.565Z,93939.00
2023-03-10T15:00:27.151Z,93935.53
2023-03-10T15:02:54.302Z,93945.50
2023-03-10T15:05:27.562Z,93947.44
2023-03-10T15:07:56.921Z,93945.50
2023-03-10T15:10:24.106Z,93943.59
2023-03-10T15:12:53.719Z,93954.72
2023-03-10T15:15:26.614Z,93948.59
2023-03-10T15:17:53.779Z,93960.09
2023-03-10T15:20:24.723Z,93957.41
2023-03-10T15:22:52.270Z,93960.47
2023-03-10T15:25:21.275Z,93960.88
2023-03-10T15:27:50.150Z,93965.47
2023-03-10T15:30:21.067Z,93962.41
2023-03-10T15:32:50.990Z,93967.03
2023-03-10T15:35:19.364Z,93971.97
2023-03-10T15:37:46.468Z,93962.41
2023-03-10T15:40:16.889Z,93975.09
2023-03-10T15:42:45.164Z,93981.59
2023-03-10T15:45:13.609Z,93982.38
2023-03-10T15:47:41.521Z,93986.59
2023-03-10T15:50:09.631Z,93988.16
2023-03-10T15:52:36.953Z,93991.97
2023-03-10T15:55:05.302Z,94000.03
2023-03-10T15:57:32.409Z,93998.13
2023-03-10T15:59:59.479Z,93995.44
2023-03-10T16:02:26.646Z,94001.59
2023-03-10T16:04:53.784Z,93995.03
2023-03-10T16:07:20.919Z,94013.09
2023-03-10T16:09:48.010Z,94006.19
2023-03-10T16:12:15.083Z,94008.88
2023-03-10T16:14:42.187Z,94012.34
2023-03-10T16:17:09.569Z,94014.63
2023-03-10T16:19:36.692Z,94020.41
2023-03-10T16:22:03.805Z,94026.91
2023-03-10T16:24:30.936Z,94022.72
2023-03-10T16:26:58.039Z,94030.38
2023-03-10T16:29:25.139Z,94037.28
2023-03-10T16:31:53.063Z,94026.16
2023-03-10T16:34:20.543Z,94043.81
2023-03-10T16:36:49.710Z,94048.03
2023-03-10T16:39:17.929Z,94050.72
2023-03-10T16:41:45.223Z,94035.78
2023-03-10T16:44:13.570Z,94036.16
2023-03-10T16:46:40.924Z,94044.59
2023-03-10T16:49:13.720Z,94044.25
2023-03-10T16:51:43.228Z,94043.47
2023-03-10T16:54:21.745Z,94038.88
2023-03-10T16:56:51.254Z,94038.50
2023-03-10T16:59:24.231Z,94046.19
2023-03-10T17:01:51.383Z,94033.91
2023-03-10T17:04:20.019Z,94046.56
2023-03-10T17:06:47.665Z,94032.38
2023-03-10T17:09:15.877Z,94022.38
2023-03-10T17:11:46.370Z,94031.22
2023-03-10T17:14:15.679Z,94032.00
2023-03-10T17:16:43.953Z,94029.31
2023-03-10T17:19:14.290Z,94031.22
2023-03-10T17:21:44.828Z,94050.78
2023-03-10T17:24:13.413Z,94050.03
2023-03-10T17:26:41.178Z,94063.47
2023-03-10T17:29:08.886Z,94073.06
2023-03-10T17:31:36.265Z,94077.66
2023-03-10T17:34:06.708Z,94074.22
2023-03-10T17:36:34.730Z,94096.47
2023-03-10T17:39:03.527Z,94097.63
2023-03-10T17:41:32.357Z,94103.00
2023-03-10T17:43:59.862Z,94105.28
2023-03-10T17:46:29.534Z,94118.34
2023-03-10T17:48:57.697Z,94123.72
2023-03-10T17:51:27.387Z,94130.66
2023-03-10T17:53:57.334Z,94143.28
2023-03-10T17:56:24.882Z,94139.84
2023-03-10T17:58:56.920Z,94142.91
2023-03-10T18:01:27.623Z,94159.03
2023-03-10T18:03:55.905Z,94160.97
2023-03-10T18:06:25.825Z,94167.50
2023-03-10T18:08:56.069Z,94158.28
2023-03-10T18:11:24.106Z,94168.28
2023-03-10T18:13:51.519Z,94179.78
2023-03-10T18:16:21.627Z,94173.63
2023-03-10T18:18:49.316Z,94165.59
2023-03-10T18:21:17.251Z,94170.97
2023-03-10T18:23:45.286Z,94185.16
2023-03-10T18:26:15.517Z,94179.41
2023-03-10T18:28:42.689Z,94184.38
2023-03-10T18:31:15.937Z,94191.69
2023-03-10T18:33:43.033Z,94205.13
2023-03-10T18:36:10.814Z,94216.63
2023-03-10T18:38:37.962Z,94191.69
2023-03-10T18:41:05.205Z,94190.53
2023-03-10T18:43:32.399Z,94190.53
2023-03-10T18:45:59.925Z,94181.31
2023-03-10T18:48:27.117Z,94210.47
2023-03-10T18:50:55.232Z,94209.31
2023-03-10T18:53:22.814Z,94211.25
2023-03-10T18:55:50.042Z,94218.94
2023-03-10T18:58:17.123Z,94212.41
2023-03-10T19:00:44.530Z,94197.03
2023-03-10T19:03:11.781Z,94194.34
2023-03-10T19:05:39.938Z,94188.22
2023-03-10T19:08:07.462Z,94193.59
2023-03-10T19:10:34.594Z,94192.44
2023-03-10T19:13:01.723Z,94194.72
2023-03-10T19:15:29.168Z,94187.06
2023-03-10T19:17:56.448Z,94197.03
2023-03-10T19:20:23.528Z,94193.97
2023-03-10T19:22:50.838Z,94186.66
2023-03-10T19:25:19.467Z,94177.47
2023-03-10T19:27:47.057Z,94186.69
2023-03-10T19:30:16.524Z,94181.31
2023-03-10T19:32:45.037Z,94175.94
2023-03-10T19:35:12.904Z,94164.03
2023-03-10T19:37:40.656Z,94163.66
2023-03-10T19:40:08.501Z,94183.22
2023-03-10T19:42:36.271Z,94178.59
2023-03-10T19:45:03.542Z,94183.59
2023-03-10T19:47:31.750Z,94182.44
2023-03-10T19:49:58.929Z,94177.06
2023-03-10T19:52:26.229Z,94172.47
2023-03-10T19:54:53.392Z,94175.53
2023-03-10T19:57:20.500Z,94175.53
2023-03-10T19:59:47.596Z,94174.34
2023-03-10T20:02:16.364Z,94168.97
2023-03-10T20:04:44.861Z,94173.97
2023-03-10T20:07:11.973Z,94175.16
2023-03-10T20:09:39.076Z,94186.66
2023-03-10T20:12:06.301Z,94177.41
2023-03-10T20:14:33.398Z,94182.78
2023-03-10T20:17:00.496Z,94181.28
2023-03-10T20:19:27.622Z,94176.66
2023-03-10T20:21:54.685Z,94204.28
2023-03-10T20:24:21.831Z,94209.28
2023-03-10T20:26:49.204Z,94205.09
2023-03-10T20:29:16.407Z,94210.09
2023-03-10T20:31:43.538Z,94216.22
2023-03-10T20:34:17.673Z,94219.31
2023-03-10T20:36:45.107Z,94228.91
2023-03-10T20:39:12.214Z,94222.75
2023-03-10T20:41:39.936Z,94230.44
2023-03-10T20:44:07.045Z,94227.00
2023-03-10T20:46:34.189Z,94223.53
2023-03-10T20:49:01.280Z,94234.69
2023-03-10T20:51:28.379Z,94223.53
2023-03-10T20:53:55.496Z,94219.31
2023-03-10T20:56:22.578Z,94237.38
2023-03-10T20:58:49.675Z,94218.56
2023-03-10T21:01:20.140Z,94229.69
2023-03-10T21:03:47.501Z,94245.03
2023-03-10T21:06:14.663Z,94236.59
2023-03-10T21:08:41.727Z,94265.78
2023-03-10T21:11:08.809Z,94256.94
2023-03-10T21:13:35.880Z,94243.13
2023-03-10T21:16:03.031Z,94220.88
2023-03-10T21:18:30.161Z,94236.59
2023-03-10T21:20:57.324Z,94244.66
2023-03-10T21:23:24.583Z,94256.56
2023-03-10T21:25:52.807Z,94255.78
2023-03-10T21:28:20.499Z,94260.03
2023-03-10T21:30:47.656Z,94368.97
2023-03-10T21:33:14.775Z,94312.19
2023-03-10T21:35:41.935Z,94308.00
2023-03-10T21:38:11.014Z,94324.84
2023-03-10T21:40:38.089Z,94321.03
2023-03-10T21:43:05.216Z,94291.47
2023-03-10T21:45:32.356Z,94295.72
2023-03-10T21:47:59.544Z,94300.69
2023-03-10T21:50:26.640Z,94293.78
2023-03-10T21:52:53.828Z,94304.91
2023-03-10T21:55:23.738Z,94303.38
2023-03-10T21:57:51.499Z,94300.69
2023-03-10T22:00:20.051Z,94332.53
2023-03-10T22:02:47.710Z,94360.91
2023-03-10T22:05:18.035Z,94362.44
2023-03-10T22:07:45.916Z,94365.13
2023-03-10T22:10:14.013Z,94408.44
2023-03-10T22:12:41.360Z,94406.16
2023-03-10T22:15:14.957Z,94407.66
2023-03-10T22:17:42.080Z,94405.75
2023-03-10T22:20:16.149Z,94403.81
2023-03-10T22:22:43.231Z,94412.66
2023-03-10T22:25:11.091Z,94419.19
2023-03-10T22:27:38.232Z,94449.47
2023-03-10T22:30:06.844Z,94452.53
2023-03-10T22:32:34.151Z,94454.84
2023-03-10T22:35:01.289Z,94465.94
2023-03-10T22:37:28.424Z,94455.56
2023-03-10T22:39:55.501Z,94448.66
2023-03-10T22:42:22.634Z,94514.19
2023-03-10T22:44:49.711Z,94477.41
2023-03-10T22:47:17.336Z,94503.84
2023-03-10T22:49:45.288Z,94517.66
2023-03-10T22:52:12.576Z,94502.75
2023-03-10T22:54:39.751Z,94497.75
2023-03-10T22:57:06.877Z,94504.63
2023-03-10T22:59:33.941Z,94513.84
2023-03-10T23:02:01.137Z,94519.63
2023-03-10T23:04:28.336Z,94552.59
2023-03-10T23:06:55.426Z,94560.66
2023-03-10T23:09:22.562Z,94563.31
2023-03-10T23:11:49.712Z,94564.88
2023-03-10T23:14:16.949Z,94586.34
2023-03-10T23:16:44.066Z,94587.50
2023-03-10T23:19:11.216Z,94576.34
2023-03-10T23:21:38.340Z,94580.59
2023-03-10T23:24:05.934Z,94573.66
2023-03-10T23:26:33.410Z,94609.34
2023-03-10T23:29:00.872Z,94587.09
2023-03-10T23:31:27.989Z,94651.53
2023-03-10T23:33:55.201Z,94620.81
2023-03-10T23:36:22.294Z,94630.69
2023-03-10T23:38:49.394Z,94618.38
2023-03-10T23:41:16.627Z,94621.44
2023-03-10T23:43:43.787Z,94632.16
2023-03-10T23:46:10.914Z,94659.78
2023-03-10T23:48:38.026Z,94656.72
2023-03-10T23:51:05.684Z,94699.66
2023-03-10T23:53:32.796Z,94674.38
2023-03-10T23:55:59.875Z,94663.66
2023-03-10T23:58:28.890Z,94670.19
